Time;durP1;ratioP1;P1;durP2;ratioP2;P2;SDS_P1;SDS_P2;PMS_P1;PMS_P2;Temp;Humidity;BMP_temperature;BMP_pressure;BME280_temperature;BME280_humidity;BME280_pressure;Samples;Min_cycle;Max_cycle;Signal;HPM_P1;HPM_P2
2021/09/15 00:02:11;;;;;;;;;13.25;11.25;;;;;24.98;58.85;100542.94;5077578;27;45334;-56
2021/09/15 00:04:37;;;;;;;;;12.00;12.00;;;;;24.98;59.24;100542.09;5076326;28;45349;-57
2021/09/15 00:07:03;;;;;;;;;13.00;11.25;;;;;24.96;58.78;100541.38;5076952;27;45444;-49
2021/09/15 00:09:28;;;;;;;;;13.00;11.50;;;;;24.96;58.85;100539.59;5076880;27;45388;-51
2021/09/15 00:11:54;;;;;;;;;14.50;13.00;;;;;24.94;58.60;100527.38;5077597;27;45441;-54
2021/09/15 00:14:20;;;;;;;;;10.25;10.25;;;;;24.95;59.20;100531.72;5077293;27;45208;-52
2021/09/15 00:16:46;;;;;;;;;12.75;10.25;;;;;24.92;58.69;100524.88;5076972;27;45538;-49
2021/09/15 00:19:11;;;;;;;;;11.00;10.50;;;;;24.91;59.07;100527.66;5076962;27;45262;-47
2021/09/15 00:21:37;;;;;;;;;10.75;8.75;;;;;24.89;58.83;100526.94;5077146;27;45491;-56
2021/09/15 00:24:03;;;;;;;;;8.00;8.00;;;;;24.88;58.57;100523.41;5077172;27;45458;-51
2021/09/15 00:26:28;;;;;;;;;10.50;10.50;;;;;24.86;58.61;100525.34;5077115;28;46748;-46
2021/09/15 00:28:54;;;;;;;;;9.25;9.25;;;;;24.87;58.46;100529.69;5077278;28;45154;-46
2021/09/15 00:31:19;;;;;;;;;11.75;10.25;;;;;24.85;58.99;100519.22;5076992;27;45410;-56
2021/09/15 00:33:44;;;;;;;;;9.00;9.00;;;;;24.84;58.43;100522.00;5077161;27;45617;-53
2021/09/15 00:36:10;;;;;;;;;11.00;11.00;;;;;24.82;59.01;100518.63;5076527;27;46762;-52
2021/09/15 00:38:35;;;;;;;;;6.50;6.50;;;;;24.81;58.26;100512.44;5076836;27;45466;-54
2021/09/15 00:41:00;;;;;;;;;10.25;9.25;;;;;24.79;59.00;100510.91;5076915;27;45377;-52
2021/09/15 00:43:25;;;;;;;;;10.50;9.00;;;;;24.77;58.35;100512.81;5077389;27;45321;-52
2021/09/15 00:45:51;;;;;;;;;9.50;9.50;;;;;24.75;58.42;100510.31;5076425;27;46221;-50
2021/09/15 00:48:16;;;;;;;;;9.50;8.75;;;;;24.74;58.32;100505.13;5076701;27;45447;-46
2021/09/15 00:50:41;;;;;;;;;7.25;7.25;;;;;24.72;58.54;100502.59;5076595;27;45364;-44
2021/09/15 00:53:08;;;;;;;;;10.75;8.00;;;;;24.71;58.38;100506.19;5076844;27;45608;-47
2021/09/15 00:55:34;;;;;;;;;9.00;7.00;;;;;24.71;58.60;100498.25;5076473;27;45516;-44
2021/09/15 00:58:00;;;;;;;;;6.50;5.25;;;;;24.70;58.77;100508.00;5076884;27;45265;-46
2021/09/15 01:00:26;;;;;;;;;10.50;8.50;;;;;24.67;58.48;100494.97;5076911;27;45281;-49
2021/09/15 01:02:52;;;;;;;;;5.50;5.00;;;;;24.70;58.92;100500.06;5076635;27;45330;-47
2021/09/15 01:05:17;;;;;;;;;7.00;7.00;;;;;24.70;58.74;100509.81;5076235;27;46455;-47
2021/09/15 01:07:43;;;;;;;;;6.75;6.75;;;;;24.68;58.91;100504.63;5075138;28;45238;-44
2021/09/15 01:10:09;;;;;;;;;6.75;6.75;;;;;24.69;58.77;100510.78;5076394;27;45304;-46
2021/09/15 01:12:35;;;;;;;;;10.25;8.50;;;;;24.68;58.79;100512.59;5076609;27;45389;-46
2021/09/15 01:15:00;;;;;;;;;6.00;5.25;;;;;24.68;58.41;100507.28;5076556;27;45394;-44
2021/09/15 01:17:25;;;;;;;;;7.00;7.00;;;;;24.69;58.66;100508.97;5076463;27;45400;-44
2021/09/15 01:19:51;;;;;;;;;7.75;5.75;;;;;24.68;58.60;100511.72;5076441;27;45453;-47
2021/09/15 01:22:16;;;;;;;;;6.50;5.00;;;;;24.68;58.17;100512.59;5080103;27;45439;-44
2021/09/15 01:24:42;;;;;;;;;6.00;6.00;;;;;24.68;58.34;100501.13;5079793;27;46529;-45
2021/09/15 01:27:07;;;;;;;;;5.00;5.00;;;;;24.66;58.86;100493.28;5079647;27;45258;-46
2021/09/15 01:29:34;;;;;;;;;8.00;7.50;;;;;24.67;58.29;100494.13;5079823;27;45452;-46
2021/09/15 01:32:11;;;;;;;;;5.00;5.00;;;;;24.67;58.13;100499.44;5096145;27;45208;-45
2021/09/15 01:34:38;;;;;;;;;6.00;5.25;;;;;24.66;58.30;100492.44;5079598;27;46239;-49
2021/09/15 01:37:06;;;;;;;;;6.75;5.50;;;;;24.67;58.02;100494.97;5079649;27;45505;-46
2021/09/15 01:39:32;;;;;;;;;8.00;6.00;;;;;24.69;58.49;100498.38;5078760;28;45416;-50
2021/09/15 01:41:59;;;;;;;;;8.50;7.25;;;;;24.69;58.26;100498.38;5080223;27;45607;-46
2021/09/15 01:44:34;;;;;;;;;8.50;8.00;;;;;24.70;58.55;100504.50;5079390;27;46646;-46
2021/09/15 01:47:01;;;;;;;;;9.00;8.00;;;;;24.68;58.62;100491.38;5079433;27;46097;-45
2021/09/15 01:49:30;;;;;;;;;9.75;7.00;;;;;24.70;58.01;100483.31;5079591;27;45336;-49
2021/09/15 01:51:56;;;;;;;;;9.00;8.00;;;;;24.70;58.45;100486.81;5079596;28;45508;-51
2021/09/15 01:54:22;;;;;;;;;7.00;7.00;;;;;24.72;58.50;100491.97;5079242;27;45392;-45
2021/09/15 01:56:47;;;;;;;;;8.00;6.75;;;;;24.73;58.18;100490.19;5095067;27;45415;-50
2021/09/15 01:59:12;;;;;;;;;8.25;5.75;;;;;24.74;58.51;100483.94;5079180;27;45427;-44
2021/09/15 02:01:38;;;;;;;;;8.00;6.75;;;;;24.75;58.52;100493.56;5079608;27;45303;-48
2021/09/15 02:04:03;;;;;;;;;7.75;6.50;;;;;24.72;58.12;100491.16;5078996;27;45428;-47
2021/09/15 02:06:29;;;;;;;;;8.00;8.00;;;;;24.70;58.02;100494.75;5079177;27;48631;-46
2021/09/15 02:08:54;;;;;;;;;9.75;7.25;;;;;24.70;58.29;100501.84;5079269;27;45311;-50
2021/09/15 02:11:19;;;;;;;;;8.75;7.75;;;;;24.70;58.62;100509.81;5079283;27;45205;-53
2021/09/15 02:13:45;;;;;;;;;7.50;7.50;;;;;24.69;58.01;100508.16;5079017;27;46248;-57
2021/09/15 02:16:10;;;;;;;;;8.25;7.50;;;;;24.67;58.61;100510.03;5078849;27;45426;-55
2021/09/15 02:18:35;;;;;;;;;7.75;6.50;;;;;24.67;57.90;100516.16;5079078;27;45245;-53
2021/09/15 02:21:01;;;;;;;;;10.50;8.00;;;;;24.67;58.08;100510.88;5079508;27;45254;-48
2021/09/15 02:23:26;;;;;;;;;7.00;7.00;;;;;24.67;58.04;100507.38;5078813;27;45420;-55
2021/09/15 02:25:51;;;;;;;;;9.25;8.00;;;;;24.67;58.65;100516.16;5078783;27;45251;-53
2021/09/15 02:28:17;;;;;;;;;9.25;8.25;;;;;24.68;57.93;100499.34;5078902;27;45340;-52
2021/09/15 02:30:42;;;;;;;;;6.25;6.25;;;;;24.69;58.29;100501.03;5079028;27;45580;-50
2021/09/15 02:33:07;;;;;;;;;10.00;9.00;;;;;24.70;58.20;100494.75;5078551;27;46589;-48
2021/09/15 02:35:33;;;;;;;;;6.25;6.00;;;;;24.71;57.83;100495.59;5079036;27;45204;-52
2021/09/15 02:37:58;;;;;;;;;8.00;7.25;;;;;24.73;58.39;100506.09;5078696;27;45385;-52
2021/09/15 02:40:23;;;;;;;;;6.00;6.00;;;;;24.74;57.74;100507.78;5078917;27;45482;-52
2021/09/15 02:42:49;;;;;;;;;7.50;7.50;;;;;24.73;58.46;100508.75;5078465;27;46494;-53
2021/09/15 02:45:14;;;;;;;;;7.50;7.50;;;;;24.75;58.09;100517.44;5078346;27;49260;-51
2021/09/15 02:47:39;;;;;;;;;7.50;7.00;;;;;24.72;58.36;100523.78;5078587;27;45314;-52
2021/09/15 02:50:05;;;;;;;;;11.50;8.75;;;;;24.72;58.11;100528.25;5078865;27;45286;-47
2021/09/15 02:52:30;;;;;;;;;7.50;7.50;;;;;24.70;57.94;100526.56;5078460;27;47725;-49
2021/09/15 02:54:56;;;;;;;;;10.50;8.50;;;;;24.70;58.57;100528.34;5078387;27;45313;-48
2021/09/15 02:57:21;;;;;;;;;8.00;6.75;;;;;24.68;58.59;100525.84;5078587;27;45324;-50
2021/09/15 02:59:46;;;;;;;;;7.50;7.50;;;;;24.67;58.20;100525.94;5078333;27;45329;-53
2021/09/15 03:02:12;;;;;;;;;7.50;6.75;;;;;24.67;58.41;100525.94;5078326;27;45447;-49
2021/09/15 03:04:37;;;;;;;;;8.00;7.25;;;;;24.65;58.71;100522.56;5078230;27;45384;-50
2021/09/15 03:07:02;;;;;;;;;8.50;6.75;;;;;24.63;58.50;100519.19;5078429;28;45393;-55
2021/09/15 03:09:28;;;;;;;;;8.75;8.50;;;;;24.61;58.88;100510.50;5078462;27;45314;-48
2021/09/15 03:11:53;;;;;;;;;9.25;9.25;;;;;24.61;58.92;100516.66;5077953;27;49029;-52
2021/09/15 03:14:19;;;;;;;;;6.75;6.25;;;;;24.60;58.45;100514.09;5077984;28;46626;-49
2021/09/15 03:16:44;;;;;;;;;6.75;5.25;;;;;24.59;58.36;100510.63;5078205;27;45423;-52
2021/09/15 03:19:09;;;;;;;;;7.25;7.00;;;;;24.60;58.46;100509.66;5078284;28;45536;-48
2021/09/15 03:21:35;;;;;;;;;9.00;8.00;;;;;24.61;58.83;100506.06;5078208;27;46452;-49
2021/09/15 03:24:00;;;;;;;;;7.50;6.75;;;;;24.61;58.48;100499.91;5077883;27;45308;-50
2021/09/15 03:26:26;;;;;;;;;7.75;7.50;;;;;24.61;58.71;100506.06;5093720;27;45341;-48
2021/09/15 03:28:51;;;;;;;;;6.75;6.00;;;;;24.63;58.77;100509.44;5078218;27;45259;-48
2021/09/15 03:31:17;;;;;;;;;9.00;7.50;;;;;24.63;58.23;100504.13;5077708;27;45355;-51
2021/09/15 03:33:42;;;;;;;;;9.00;7.00;;;;;24.65;58.82;100504.84;5077804;28;45335;-49
2021/09/15 03:36:08;;;;;;;;;8.25;8.00;;;;;24.65;58.71;100504.84;5078215;27;45293;-49
2021/09/15 03:38:33;;;;;;;;;5.00;5.00;;;;;24.65;58.58;100507.47;5078451;27;45502;-47
2021/09/15 03:40:58;;;;;;;;;8.25;8.25;;;;;24.66;58.43;100511.81;5077574;27;45635;-45
2021/09/15 03:43:24;;;;;;;;;10.00;9.00;;;;;24.65;58.33;100510.13;5076983;27;45260;-45
2021/09/15 03:45:49;;;;;;;;;8.75;8.50;;;;;24.66;58.83;100509.19;5077737;27;45440;-46
2021/09/15 03:48:14;;;;;;;;;8.50;8.50;;;;;24.67;58.48;100513.50;5077704;27;45287;-46
2021/09/15 03:50:40;;;;;;;;;7.00;7.00;;;;;24.65;58.24;100515.44;5077371;27;48416;-50
2021/09/15 03:53:05;;;;;;;;;8.50;8.25;;;;;24.67;58.72;100516.16;5077669;27;45416;-48
2021/09/15 03:55:31;;;;;;;;;6.75;6.75;;;;;24.66;58.22;100525.06;5077647;27;45581;-50
2021/09/15 03:57:56;;;;;;;;;6.75;6.75;;;;;24.66;58.02;100518.94;5077743;27;45266;-45
2021/09/15 04:00:21;;;;;;;;;7.50;7.50;;;;;24.66;58.24;100525.06;5076957;27;45616;-45
2021/09/15 04:02:47;;;;;;;;;8.00;7.50;;;;;24.67;58.24;100526.75;5077254;28;45424;-45
2021/09/15 04:05:12;;;;;;;;;6.50;6.50;;;;;24.64;58.32;100529.66;5077362;28;45341;-45
2021/09/15 04:07:39;;;;;;;;;6.25;5.25;;;;;24.64;58.58;100520.88;5077676;27;45314;-50
2021/09/15 04:10:05;;;;;;;;;6.25;6.00;;;;;24.65;58.74;100523.38;5093203;27;48028;-57
2021/09/15 04:12:31;;;;;;;;;8.00;7.75;;;;;24.65;58.00;100519.91;5077063;27;45707;-46
2021/09/15 04:14:56;;;;;;;;;7.25;6.50;;;;;24.64;58.62;100516.41;5077229;27;45395;-58
2021/09/15 04:17:21;;;;;;;;;10.50;8.00;;;;;24.65;58.21;100526.03;5077240;28;45499;-51
2021/09/15 04:19:46;;;;;;;;;6.25;6.25;;;;;24.63;58.70;100529.78;5076690;27;52251;-46
2021/09/15 04:22:18;;;;;;;;;11.00;9.50;;;;;24.61;58.31;100516.66;5077209;27;45389;-46
2021/09/15 04:32:39;;;;;;;;;8.50;7.75;;;;;24.54;58.26;100526.03;5077096;28;45740;-51
2021/09/15 04:35:05;;;;;;;;;7.50;7.25;;;;;24.55;58.72;100527.72;5092561;27;45283;-49
2021/09/15 04:37:31;;;;;;;;;8.75;7.50;;;;;24.55;58.69;100522.41;5077077;27;45815;-53
2021/09/15 04:39:56;;;;;;;;;10.50;8.75;;;;;24.54;59.04;100524.25;5076307;27;51834;-44
2021/09/15 04:42:21;;;;;;;;;6.50;6.50;;;;;24.54;58.75;100526.03;5076413;28;51714;-46
2021/09/15 04:44:47;;;;;;;;;9.00;9.00;;;;;24.54;58.75;100518.06;5076878;27;45283;-46
2021/09/15 04:47:12;;;;;;;;;11.00;9.00;;;;;24.55;59.03;100522.41;5076777;27;45426;-45
2021/09/15 04:49:37;;;;;;;;;9.50;8.75;;;;;24.54;58.49;100518.06;5076964;27;45494;-44
2021/09/15 04:52:03;;;;;;;;;9.50;8.50;;;;;24.53;58.50;100521.69;5076644;27;45278;-45
2021/09/15 04:54:28;;;;;;;;;6.50;6.50;;;;;24.51;58.65;100515.69;5076564;28;45360;-54
2021/09/15 04:56:54;;;;;;;;;7.25;7.25;;;;;24.51;58.94;100519.16;5079945;27;45439;-53
2021/09/15 04:59:19;;;;;;;;;7.00;7.00;;;;;24.50;59.14;100519.28;5080056;27;45348;-50
2021/09/15 05:01:45;;;;;;;;;10.00;8.00;;;;;24.50;58.49;100519.28;5080214;27;45464;-47
2021/09/15 05:04:11;;;;;;;;;11.75;9.00;;;;;24.49;59.08;100518.44;5080537;27;45405;-47
2021/09/15 05:06:36;;;;;;;;;10.00;8.50;;;;;24.49;58.42;100518.44;5080282;28;45375;-49
2021/09/15 05:09:01;;;;;;;;;7.75;7.75;;;;;24.49;59.05;100520.25;5079797;27;45369;-47
2021/09/15 05:11:27;;;;;;;;;9.25;8.00;;;;;24.49;59.22;100533.50;5079978;27;45413;-48
2021/09/15 05:13:52;;;;;;;;;7.25;6.00;;;;;24.48;59.10;100531.81;5080080;27;45360;-44
2021/09/15 05:16:17;;;;;;;;;7.50;7.50;;;;;24.49;58.62;100522.91;5080192;27;45436;-44
2021/09/15 05:18:43;;;;;;;;;8.00;8.00;;;;;24.47;58.95;100527.47;5080142;27;45509;-44
2021/09/15 05:21:08;;;;;;;;;8.00;8.00;;;;;24.47;58.77;100530.97;5079872;27;45350;-45
2021/09/15 05:23:34;;;;;;;;;11.50;10.25;;;;;24.47;59.19;100530.13;5080023;27;45322;-50
2021/09/15 05:25:59;;;;;;;;;11.50;10.00;;;;;24.46;58.81;100529.28;5079946;27;45357;-47
2021/09/15 05:28:25;;;;;;;;;9.00;8.00;;;;;24.45;58.86;100532.91;5079533;27;45441;-45
2021/09/15 05:30:50;;;;;;;;;8.00;8.00;;;;;24.44;58.79;100533.84;5095526;27;45385;-49
2021/09/15 05:33:15;;;;;;;;;8.00;8.00;;;;;24.44;58.86;100535.66;5079781;27;45290;-46
2021/09/15 05:35:41;;;;;;;;;7.75;7.75;;;;;24.45;58.64;100540.84;5080217;27;45587;-48
2021/09/15 05:38:06;;;;;;;;;9.00;9.00;;;;;24.46;59.22;100544.31;5079648;27;45384;-46
2021/09/15 05:40:32;;;;;;;;;9.00;8.25;;;;;24.45;59.15;100542.63;5079594;27;45314;-45
2021/09/15 05:42:57;;;;;;;;;12.50;8.50;;;;;24.47;58.90;100546.00;5079745;27;45321;-52
2021/09/15 05:45:22;;;;;;;;;8.75;8.00;;;;;24.48;58.58;100553.00;5079905;27;45389;-54
2021/09/15 05:47:48;;;;;;;;;9.75;8.50;;;;;24.50;59.13;100561.69;5079421;27;45567;-50
2021/09/15 05:50:13;;;;;;;;;8.25;8.25;;;;;24.51;58.79;100552.78;5079716;27;45287;-53
2021/09/15 05:52:38;;;;;;;;;8.00;8.00;;;;;24.53;58.62;100553.47;5079588;27;45264;-49
2021/09/15 05:55:06;;;;;;;;;9.00;9.00;;;;;24.54;58.85;100556.03;5079675;27;45214;-50
2021/09/15 05:57:31;;;;;;;;;10.00;8.75;;;;;24.54;58.27;100553.38;5079258;27;45550;-50
2021/09/15 05:59:57;;;;;;;;;10.00;8.25;;;;;24.55;58.92;100554.22;5079083;27;45355;-46
2021/09/15 06:02:22;;;;;;;;;9.50;8.25;;;;;24.57;58.85;100567.34;5079275;27;45370;-51
2021/09/15 06:04:47;;;;;;;;;8.25;7.75;;;;;24.53;58.78;100564.06;5079406;27;45639;-46
2021/09/15 06:07:13;;;;;;;;;8.75;7.75;;;;;24.58;58.43;100561.09;5078830;27;46078;-45
2021/09/15 06:09:38;;;;;;;;;13.00;10.50;;;;;24.58;58.60;100574.34;5078966;27;45485;-45
2021/09/15 06:12:04;;;;;;;;;9.00;8.00;;;;;24.59;58.89;100573.34;5079114;27;45401;-54
2021/09/15 06:14:29;;;;;;;;;13.50;9.00;;;;;24.58;58.61;100569.88;5079331;28;45306;-44
2021/09/15 06:16:55;;;;;;;;;11.00;10.75;;;;;24.58;58.50;100575.19;5079042;27;45457;-48
2021/09/15 06:19:20;;;;;;;;;8.00;8.00;;;;;24.58;58.47;100577.81;5078949;27;45245;-52
2021/09/15 06:21:45;;;;;;;;;11.50;9.75;;;;;24.60;58.58;100575.06;5079376;27;45314;-49
2021/09/15 06:24:13;;;;;;;;;10.25;9.75;;;;;24.61;59.06;100569.66;5079070;27;45555;-48
2021/09/15 06:26:38;;;;;;;;;14.00;11.50;;;;;24.61;58.49;100571.44;5078630;27;47460;-47
2021/09/15 06:29:03;;;;;;;;;12.00;11.25;;;;;24.58;58.41;100569.06;5078857;27;45356;-54
2021/09/15 06:31:29;;;;;;;;;9.75;9.75;;;;;24.61;58.60;100571.44;5078917;27;45181;-48
2021/09/15 06:33:54;;;;;;;;;9.25;8.75;;;;;24.61;58.79;100572.31;5079076;28;45175;-52
2021/09/15 06:36:20;;;;;;;;;10.75;10.75;;;;;24.63;58.53;100569.53;5078541;27;45476;-49
2021/09/15 06:38:45;;;;;;;;;8.50;8.50;;;;;24.64;58.52;100571.22;5078566;27;45389;-46
2021/09/15 06:41:11;;;;;;;;;11.75;9.25;;;;;24.63;58.79;100573.03;5078631;27;45346;-50
2021/09/15 06:43:39;;;;;;;;;10.50;10.00;;;;;24.63;58.58;100573.03;5078780;28;45559;-49
2021/09/15 06:46:05;;;;;;;;;16.75;13.25;;;;;24.59;59.45;100576.88;5078532;27;45467;-45
2021/09/15 06:48:30;;;;;;;;;12.50;12.50;;;;;24.51;58.87;100584.56;5078413;27;45284;-50
2021/09/15 06:50:55;;;;;;;;;10.00;10.00;;;;;24.44;59.65;100584.19;5078438;27;45268;-50
2021/09/15 06:53:21;;;;;;;;;14.00;11.75;;;;;24.37;59.53;100583.81;5078449;27;45562;-46
2021/09/15 06:55:46;;;;;;;;;9.75;7.25;;;;;24.29;59.84;100586.19;5078616;27;45605;-45
2021/09/15 06:58:11;;;;;;;;;12.00;11.50;;;;;24.19;59.74;100587.84;5078298;27;45322;-45
2021/09/15 07:00:37;;;;;;;;;13.50;11.50;;;;;24.13;60.12;100590.94;5078002;27;47971;-43
2021/09/15 07:03:03;;;;;;;;;10.00;9.25;;;;;24.08;60.27;100594.81;5078458;27;45520;-46
2021/09/15 07:05:29;;;;;;;;;11.00;9.00;;;;;24.05;60.20;100596.81;5078168;27;46496;-48
2021/09/15 07:07:55;;;;;;;;;13.00;12.00;;;;;24.02;60.96;100599.69;5077868;27;45471;-46
2021/09/15 07:10:21;;;;;;;;;12.00;10.75;;;;;23.99;61.03;100594.63;5078219;27;45398;-46
2021/09/15 07:12:47;;;;;;;;;14.00;13.00;;;;;23.96;60.97;100595.72;5078640;27;45354;-52
2021/09/15 07:15:15;;;;;;;;;15.00;11.00;;;;;23.94;60.78;100606.34;5077933;27;45340;-47
2021/09/15 07:17:42;;;;;;;;;12.75;11.50;;;;;23.91;60.84;100603.97;5077233;27;45671;-44
2021/09/15 07:20:08;;;;;;;;;18.00;13.25;;;;;23.85;61.35;100604.38;5077836;27;45380;-49
2021/09/15 07:22:33;;;;;;;;;16.75;14.25;;;;;23.85;61.19;100609.69;5093910;27;45335;-45
2021/09/15 07:24:59;;;;;;;;;13.25;12.75;;;;;23.82;61.41;100612.53;5077853;27;45323;-49
2021/09/15 07:27:24;;;;;;;;;14.75;12.75;;;;;23.79;61.51;100620.72;5077612;27;45348;-49
2021/09/15 07:29:49;;;;;;;;;17.25;14.75;;;;;23.76;61.45;100616.50;5078188;27;45243;-46
2021/09/15 07:32:15;;;;;;;;;10.75;10.00;;;;;23.78;61.64;100622.53;5078124;27;45545;-50
2021/09/15 07:34:44;;;;;;;;;16.25;12.25;;;;;23.78;61.45;100621.69;5077576;28;45323;-47
2021/09/15 07:37:10;;;;;;;;;14.50;12.75;;;;;23.82;61.33;100627.59;5077666;27;45806;-45
2021/09/15 07:39:35;;;;;;;;;16.25;13.50;;;;;23.85;61.60;100622.91;5077816;27;45437;-53
2021/09/15 07:42:01;;;;;;;;;15.00;11.25;;;;;23.90;61.62;100622.56;5077859;27;45331;-51
2021/09/15 07:44:26;;;;;;;;;11.50;10.50;;;;;23.91;61.64;100618.97;5077510;27;45515;-48
2021/09/15 07:46:51;;;;;;;;;16.25;13.50;;;;;23.93;61.55;100617.91;5077324;28;47268;-45
2021/09/15 07:49:16;;;;;;;;;15.50;14.50;;;;;23.93;61.58;100622.38;5077919;27;45352;-47
2021/09/15 07:51:42;;;;;;;;;15.00;13.00;;;;;23.93;61.68;100619.72;5077752;27;45592;-50
2021/09/15 07:54:07;;;;;;;;;12.00;9.25;;;;;23.92;61.32;100616.22;5077264;27;46328;-47
2021/09/15 07:56:33;;;;;;;;;14.00;12.50;;;;;23.90;61.49;100618.16;5077420;27;45364;-46
2021/09/15 07:58:58;;;;;;;;;14.75;12.75;;;;;23.88;61.59;100620.06;5077529;27;45349;-46
2021/09/15 08:01:25;;;;;;;;;13.25;12.00;;;;;23.84;61.66;100623.03;5077408;27;45342;-49
2021/09/15 08:03:52;;;;;;;;;13.75;12.50;;;;;23.81;62.03;100631.19;5077315;27;45460;-50
2021/09/15 08:06:19;;;;;;;;;11.75;10.75;;;;;23.77;61.73;100623.47;5077352;27;45321;-58
2021/09/15 08:08:45;;;;;;;;;12.50;11.00;;;;;23.76;62.12;100624.44;5077356;27;45350;-57
2021/09/15 08:11:11;;;;;;;;;10.75;10.25;;;;;23.73;62.23;100631.75;5077408;27;45401;-55
2021/09/15 08:13:36;;;;;;;;;13.00;11.00;;;;;23.71;62.44;100636.28;5077055;27;46699;-45
2021/09/15 08:16:01;;;;;;;;;13.00;9.50;;;;;23.74;62.40;100641.38;5077082;27;45256;-48
2021/09/15 08:18:28;;;;;;;;;8.50;8.50;;;;;23.75;62.40;100632.47;5077407;27;45766;-48
2021/09/15 08:20:53;;;;;;;;;9.75;9.50;;;;;23.78;62.50;100635.75;5077109;27;45302;-45
2021/09/15 08:23:19;;;;;;;;;9.25;9.25;;;;;23.82;62.14;100635.53;5077031;27;47891;-57
2021/09/15 08:25:44;;;;;;;;;8.00;8.00;;;;;23.86;62.33;100647.59;5077015;27;45302;-51
2021/09/15 08:28:10;;;;;;;;;9.00;8.75;;;;;23.89;62.12;100642.06;5077063;27;45353;-57
2021/09/15 08:30:36;;;;;;;;;8.25;8.25;;;;;23.88;62.01;100649.16;5076970;27;45449;-50
2021/09/15 08:33:01;;;;;;;;;6.50;6.50;;;;;23.90;61.83;100643.75;5076826;27;46532;-51
2021/09/15 08:35:27;;;;;;;;;5.25;5.00;;;;;23.91;62.00;100650.75;5076845;27;45328;-53
2021/09/15 08:37:52;;;;;;;;;5.50;5.50;;;;;23.91;61.70;100648.97;5077264;27;45437;-44
2021/09/15 08:40:17;;;;;;;;;6.75;5.25;;;;;23.94;62.05;100653.19;5077106;27;45657;-46
2021/09/15 08:42:43;;;;;;;;;6.50;6.00;;;;;23.95;62.11;100652.25;5076509;27;45444;-52
2021/09/15 08:45:11;;;;;;;;;5.50;5.50;;;;;23.97;62.00;100655.63;5076741;27;45360;-52
2021/09/15 08:47:39;;;;;;;;;7.75;7.00;;;;;23.94;61.87;100653.19;5076719;27;45223;-51
2021/09/15 08:50:07;;;;;;;;;8.00;8.00;;;;;23.88;62.01;100646.53;5076706;27;45549;-49
2021/09/15 08:52:32;;;;;;;;;7.00;7.00;;;;;23.85;62.73;100649.38;5076403;27;48530;-49
2021/09/15 08:54:58;;;;;;;;;6.50;6.00;;;;;23.86;62.25;100647.59;5076420;27;45441;-48
2021/09/15 08:57:23;;;;;;;;;8.75;7.00;;;;;23.86;62.25;100663.47;5076947;27;45427;-46
2021/09/15 08:59:49;;;;;;;;;6.25;6.00;;;;;23.88;62.63;100659.75;5076795;27;45236;-46
2021/09/15 09:02:15;;;;;;;;;7.75;7.75;;;;;23.91;62.62;100656.91;5076471;27;45439;-44
2021/09/15 09:04:53;;;;;;;;;6.50;6.50;;;;;23.93;62.48;100664.72;5076460;27;45245;-51
2021/09/15 09:07:20;;;;;;;;;9.50;8.00;;;;;23.94;62.52;100661.13;5076667;27;45229;-45
2021/09/15 09:09:50;;;;;;;;;7.25;7.25;;;;;23.96;63.00;100663.66;5076742;27;45354;-50
2021/09/15 09:12:18;;;;;;;;;10.50;9.00;;;;;23.99;63.20;100660.81;5091967;27;47277;-46
2021/09/15 09:14:44;;;;;;;;;8.25;8.00;;;;;23.98;63.27;100667.88;5076385;27;45193;-47
2021/09/15 09:17:29;;;;;;;;;9.25;6.50;;;;;23.99;63.06;100663.44;5076376;27;45289;-45
2021/09/15 09:20:16;;;;;;;;;7.25;6.50;;;;;24.00;62.93;100663.34;5077035;28;45228;-49
2021/09/15 09:23:04;;;;;;;;;9.00;7.00;;;;;23.99;63.00;100659.00;5076185;28;46074;-50
2021/09/15 09:25:43;;;;;;;;;7.75;7.75;;;;;24.02;63.05;100663.25;5076104;27;45356;-46
2021/09/15 09:28:17;;;;;;;;;7.00;6.00;;;;;24.04;63.04;100653.34;5076322;27;45252;-48
2021/09/15 09:30:43;;;;;;;;;6.50;5.25;;;;;24.07;63.32;100667.25;5076431;27;45604;-47
2021/09/15 09:33:08;;;;;;;;;10.00;7.75;;;;;24.10;63.14;100671.47;5091726;27;48024;-52
2021/09/15 09:35:47;;;;;;;;;7.00;6.50;;;;;24.11;63.38;100667.84;5076109;27;45286;-46
2021/09/15 09:38:19;;;;;;;;;7.00;7.00;;;;;24.13;63.11;100678.31;5091737;27;45295;-52
2021/09/15 09:41:05;;;;;;;;;7.00;7.00;;;;;24.12;62.89;100681.94;5076264;27;45430;-47
2021/09/15 09:43:36;;;;;;;;;6.75;6.75;;;;;24.09;63.40;100678.53;5079395;28;46556;-55
2021/09/15 09:46:04;;;;;;;;;5.25;5.25;;;;;24.11;62.74;100677.59;5079369;27;45726;-52
2021/09/15 09:48:32;;;;;;;;;7.75;6.00;;;;;24.12;63.30;100668.69;5079410;27;45335;-53
2021/09/15 09:50:58;;;;;;;;;6.25;5.25;;;;;24.15;63.31;100666.66;5079695;27;45694;-54
2021/09/15 09:53:23;;;;;;;;;6.50;6.25;;;;;24.16;62.68;100671.00;5079682;27;45413;-54
2021/09/15 09:55:54;;;;;;;;;6.75;6.00;;;;;24.20;63.18;100666.31;5079270;27;45336;-51
2021/09/15 09:58:23;;;;;;;;;6.00;6.00;;;;;24.25;62.56;100672.13;5079449;27;45263;-54
2021/09/15 10:00:49;;;;;;;;;6.00;6.00;;;;;24.26;62.49;100668.53;5095032;27;45515;-51
2021/09/15 10:03:15;;;;;;;;;6.25;6.00;;;;;24.31;62.23;100673.47;5079196;28;45450;-52
2021/09/15 10:05:42;;;;;;;;;6.00;6.00;;;;;24.33;62.36;100667.09;5079237;27;45295;-57
2021/09/15 10:08:09;;;;;;;;;7.25;7.25;;;;;24.35;62.10;100675.78;5079441;28;45304;-51
2021/09/15 10:10:36;;;;;;;;;6.50;6.25;;;;;24.37;62.54;100673.00;5095319;27;45275;-48
2021/09/15 10:13:02;;;;;;;;;8.50;5.00;;;;;24.39;62.11;100673.75;5078975;27;46268;-50
2021/09/15 10:15:29;;;;;;;;;6.00;4.25;;;;;24.40;62.06;100678.09;5078933;27;45347;-47
2021/09/15 10:17:56;;;;;;;;;7.25;6.75;;;;;24.42;61.86;100680.63;5079567;27;45450;-52
2021/09/15 10:20:27;;;;;;;;;6.50;5.00;;;;;24.42;61.86;100681.47;5079278;27;45597;-56
2021/09/15 10:22:53;;;;;;;;;6.50;6.50;;;;;24.44;62.08;100678.69;5079320;27;46174;-49
2021/09/15 10:25:37;;;;;;;;;5.50;5.50;;;;;24.45;61.65;100669.78;5078910;28;45318;-50
2021/09/15 10:28:05;;;;;;;;;6.00;5.00;;;;;24.45;61.91;100672.44;5094484;27;45466;-53
2021/09/15 10:30:51;;;;;;;;;4.50;3.25;;;;;24.47;62.00;100666.09;5079084;27;45407;-52
2021/09/15 10:33:35;;;;;;;;;8.00;7.00;;;;;24.48;61.69;100674.88;5094375;27;47451;-59
2021/09/15 10:36:00;;;;;;;;;7.25;6.25;;;;;24.49;61.36;100665.97;5078868;28;45404;-55
2021/09/15 10:38:51;;;;;;;;;8.75;7.75;;;;;24.51;61.69;100669.34;5079065;27;45284;-48
2021/09/15 10:41:42;;;;;;;;;6.75;6.00;;;;;24.51;61.51;100675.47;5077540;28;45513;-54
2021/09/15 10:44:09;;;;;;;;;8.00;8.00;;;;;24.52;62.05;100673.69;5078541;27;46171;-57
2021/09/15 10:46:35;;;;;;;;;8.25;7.75;;;;;24.52;62.26;100677.16;5078435;27;45565;-51
2021/09/15 10:49:15;;;;;;;;;7.00;6.25;;;;;24.54;61.54;100682.34;5078900;27;45346;-52
2021/09/15 10:51:41;;;;;;;;;7.00;7.00;;;;;24.52;61.62;100673.69;5078995;27;45333;-54
2021/09/15 10:54:40;;;;;;;;;11.75;8.75;;;;;24.55;62.05;100678.72;5077203;27;45291;-57
2021/09/15 10:57:18;;;;;;;;;7.25;7.25;;;;;24.56;61.97;100677.78;5078140;28;45368;-56
2021/09/15 10:59:55;;;;;;;;;11.50;8.75;;;;;24.56;62.11;100683.06;5078364;27;45405;-56
2021/09/15 11:02:32;;;;;;;;;7.50;7.50;;;;;24.57;61.58;100676.81;5078655;27;45308;-60
2021/09/15 11:05:19;;;;;;;;;8.75;8.75;;;;;24.60;62.00;100686.34;5078589;27;45392;-58
2021/09/15 11:07:47;;;;;;;;;9.00;9.00;;;;;24.60;61.96;100679.25;5078165;28;45674;-59
2021/09/15 11:10:31;;;;;;;;;9.25;9.00;;;;;24.62;61.75;100684.41;5078202;27;45304;-60
2021/09/15 11:12:57;;;;;;;;;9.25;9.25;;;;;24.62;61.73;100677.34;5078609;28;45323;-57
2021/09/15 11:15:26;;;;;;;;;10.50;8.50;;;;;24.63;61.67;100679.03;5076600;28;45374;-57
2021/09/15 11:17:52;;;;;;;;;8.50;8.00;;;;;24.65;61.85;100682.38;5077849;28;45319;-59
2021/09/15 11:20:25;;;;;;;;;10.50;9.75;;;;;24.64;61.38;100680.69;5077958;27;45236;-58
2021/09/15 11:22:52;;;;;;;;;9.50;8.25;;;;;24.64;61.58;100670.09;5078341;27;45548;-52
2021/09/15 11:25:19;;;;;;;;;12.00;9.00;;;;;24.67;61.35;100679.63;5077778;27;46653;-57
2021/09/15 11:28:12;;;;;;;;;11.75;10.00;;;;;24.69;61.17;100677.75;5077716;27;45248;-56
2021/09/15 11:30:40;;;;;;;;;9.75;9.25;;;;;24.70;61.48;100676.75;5077791;28;45185;-56